Estación Meteorológica Peña el Pijo (Robertgarden) [ 07/20/18 16:41:20 CEST ]

Fecha Hora Presion(HPa) Temp (°C) Humedad % Rocio (°C) Viento ( m/s) Direccion Lluvia 1Hora(mm) Lluvia 24H(mm) LLuvia Total(mm)
2018-Jan-10 01:01:42 1006.200 4.0 74 -0.2         31.08
2018-Jan-10 02:02:01 1005.500 3.9 78 0.4         31.08
2018-Jan-10 03:04:55 1005.000 3.5 81 0.6         31.08
2018-Jan-10 04:02:24 1004.800 3.6 82 0.8     0.51 0.51 31.59
2018-Jan-10 05:02:12 1004.800 3.9 83 1.3       0.51 31.59
2018-Jan-10 06:02:56 1004.500 4.2 84 1.7       0.51 31.59
2018-Jan-10 07:01:46 1005.000 4.6 85 2.3       0.51 31.59
2018-Jan-10 08:01:44 1005.600 6.4 86 4.2 1.7 NW   0.51 31.59
2018-Jan-10 09:01:42 1006.300 6.8 83 4.1       0.51 31.59
2018-Jan-10 10:01:44 1006.800 7.1 79 3.7       0.51 31.59
2018-Jan-10 11:01:38 1007.700 8.1 75 3.9 1.1 N   0.51 31.59
2018-Jan-10 12:01:52 1007.600 8.1 70 3.0 1.9 NW   0.51 31.59
2018-Jan-10 13:01:38 1006.700 9.3 63 2.6 0.1 ENE   0.51 31.59
2018-Jan-10 14:01:32 1006.400 10.0 58 2.1 2.6 NW   0.51 31.59
2018-Jan-10 15:01:36 1006.800 9.5 57 1.3 4.1 WNW   0.51 31.59
2018-Jan-10 16:01:35 1007.600 9.2 56 0.8 7.0 N   0.51 31.59
2018-Jan-10 17:01:34 1007.900 7.3 62 0.5       0.51 31.59
2018-Jan-10 18:01:36 1008.200 6.4 67 0.7 0.2 NW   0.51 31.59
2018-Jan-10 19:01:28 1008.200 6.3 69 1.1 3.1 NW   0.51 31.59
2018-Jan-10 20:01:29 1007.900 6.4 71 1.5       0.51 31.59
2018-Jan-10 21:01:41 1007.700 6.2 75 2.1 1.4 NNW   0.51 31.59
2018-Jan-10 22:01:34 1007.900 6.2 78 2.6 1.8 NW   0.51 31.59
2018-Jan-10 23:01:36 1008.800 5.4 81 2.5     1.03 1.55 32.63

Temperatura Máxima:10°    Temperatura Mínima:
Presión Máxima:1008.800 Hpa    Presión Mínima:1004.500 Hpa


Volver